Time;durP1;ratioP1;P1;durP2;ratioP2;P2;SDS_P1;SDS_P2;PMS_P1;PMS_P2;Temp;Humidity;BMP_temperature;BMP_pressure;BME280_temperature;BME280_humidity;BME280_pressure;Samples;Min_cycle;Max_cycle;Signal;HPM_P1;HPM_P2
2023/10/10 00:00:04;;;;;;;0.40;0.20;;;;;;;14.22;96.71;100746.84;4982082;28;20509;-52
2023/10/10 00:02:31;;;;;;;0.40;0.20;;;;;;;14.30;96.22;100750.13;4983665;28;20449;-53
2023/10/10 00:05:02;;;;;;;0.40;0.20;;;;;;;14.28;96.28;100745.78;4994833;28;20544;-53
2023/10/10 00:07:34;;;;;;;0.40;0.20;;;;;;;14.30;96.31;100752.81;4995143;28;20446;-53
2023/10/10 00:10:01;;;;;;;0.40;0.20;;;;;;;14.41;95.64;100761.31;4990960;28;21060;-53
2023/10/10 00:12:30;;;;;;;0.40;0.20;;;;;;;14.31;96.22;100751.00;4985465;28;20460;-53
2023/10/10 00:15:01;;;;;;;0.40;0.20;;;;;;;14.33;95.47;100757.16;4987667;28;20544;-52
2023/10/10 00:17:34;;;;;;;0.40;0.20;;;;;;;14.32;95.71;100758.09;4988985;28;20455;-52
2023/10/10 00:22:49;;;;;;;0.40;0.20;;;;;;;14.31;95.96;100756.34;4994687;28;20504;-52
2023/10/10 00:25:18;;;;;;;0.40;0.20;;;;;;;14.39;95.86;100754.25;4995048;28;20492;-52
2023/10/10 00:27:46;;;;;;;0.40;0.20;;;;;;;14.50;95.58;100750.28;4994270;28;20882;-52
2023/10/10 00:30:14;;;;;;;0.40;0.20;;;;;;;14.38;96.31;100744.47;4994533;28;21042;-52
2023/10/10 00:32:46;;;;;;;0.40;0.20;;;;;;;14.36;95.96;100746.34;4994592;28;20457;-53
2023/10/10 00:35:15;;;;;;;0.40;0.20;;;;;;;14.24;95.80;100751.22;4994405;28;20907;-52
2023/10/10 00:37:45;;;;;;;0.40;0.20;;;;;;;14.36;95.44;100747.22;4994568;28;20473;-52
2023/10/10 00:40:17;;;;;;;0.40;0.20;;;;;;;14.45;94.84;100749.59;4994352;28;20456;-52
2023/10/10 00:42:43;;;;;;;0.40;0.20;;;;;;;14.36;95.11;100754.38;4994143;28;20888;-53
2023/10/10 00:45:12;;;;;;;0.40;0.20;;;;;;;14.46;95.17;100745.13;4994031;28;20450;-53
2023/10/10 00:47:47;;;;;;;0.40;0.20;;;;;;;14.21;95.31;100751.31;4994283;28;20449;-52
2023/10/10 00:50:19;;;;;;;0.40;0.20;;;;;;;14.03;95.27;100754.66;4994317;28;20496;-52
2023/10/10 00:52:48;;;;;;;0.40;0.20;;;;;;;13.98;96.00;100748.63;4994162;28;20453;-52
2023/10/10 00:55:21;;;;;;;0.40;0.20;;;;;;;13.97;96.11;100754.00;4993786;28;20454;-53
2023/10/10 00:57:52;;;;;;;0.40;0.20;;;;;;;13.83;96.47;100750.00;4994077;28;20453;-52
2023/10/10 01:00:20;;;;;;;0.40;0.20;;;;;;;13.89;96.39;100751.59;4978202;28;20995;-52
2023/10/10 01:02:49;;;;;;;0.40;0.20;;;;;;;13.84;96.90;100748.19;4984635;28;20516;-52
2023/10/10 01:05:23;;;;;;;0.40;0.20;;;;;;;13.83;96.11;100749.13;4993625;28;20482;-52
2023/10/10 01:07:51;;;;;;;0.40;0.20;;;;;;;13.80;96.34;100751.91;4994160;28;20532;-53
2023/10/10 01:10:17;;;;;;;0.40;0.20;;;;;;;13.60;97.00;100755.28;4988232;28;20490;-52
2023/10/10 01:12:46;;;;;;;0.40;0.20;;;;;;;13.55;96.92;100759.88;4986579;28;20533;-54
2023/10/10 01:15:57;;;;;;;0.40;0.20;;;;;;;13.61;96.20;100763.22;4986595;28;20460;-52
2023/10/10 01:18:12;;;;;;;0.40;0.20;;;;;;;13.53;96.67;100759.06;4978313;28;20469;-53
2023/10/10 01:20:46;;;;;;;0.40;0.20;;;;;;;13.41;97.84;100767.47;4993700;28;20968;-52
2023/10/10 01:23:26;;;;;;;0.40;0.20;;;;;;;13.52;97.27;100757.31;4993668;28;20510;-52
2023/10/10 01:25:55;;;;;;;0.40;0.20;;;;;;;13.46;96.90;100752.19;4993458;28;20999;-53
2023/10/10 01:28:27;;;;;;;0.40;0.20;;;;;;;13.36;96.83;100750.75;4993237;28;20497;-53
2023/10/10 01:31:04;;;;;;;0.40;0.20;;;;;;;13.44;97.00;100746.03;4993406;28;20521;-53
2023/10/10 01:36:12;;;;;;;0.40;0.20;;;;;;;13.39;96.66;100743.50;4993213;28;21005;-53
2023/10/10 01:38:41;;;;;;;0.40;0.20;;;;;;;13.35;96.36;100739.19;4993103;28;21009;-52
2023/10/10 01:41:31;;;;;;;0.40;0.20;;;;;;;13.20;96.46;100745.03;4993302;28;20478;-52
2023/10/10 01:44:10;;;;;;;0.40;0.20;;;;;;;13.25;96.39;100735.06;4992370;28;20456;-53
2023/10/10 01:46:40;;;;;;;0.40;0.20;;;;;;;13.18;96.23;100736.16;4993377;28;20965;-52
2023/10/10 01:49:19;;;;;;;0.40;0.20;;;;;;;13.16;96.47;100738.00;4993003;28;20489;-53
2023/10/10 01:51:46;;;;;;;0.40;0.20;;;;;;;13.08;96.25;100740.91;4993355;28;20481;-53
2023/10/10 01:54:18;;;;;;;0.40;0.20;;;;;;;12.96;96.57;100736.81;4993164;28;20815;-54
2023/10/10 01:56:45;;;;;;;0.40;0.20;;;;;;;13.04;96.41;100739.28;4979858;28;20534;-51
2023/10/10 01:59:25;;;;;;;0.40;0.20;;;;;;;13.01;96.56;100734.88;4985991;28;20919;-53
2023/10/10 02:01:55;;;;;;;0.40;0.20;;;;;;;13.14;96.64;100730.03;4976201;28;20501;-52
2023/10/10 02:04:22;;;;;;;0.40;0.20;;;;;;;13.13;95.68;100733.63;4993192;28;20449;-52
2023/10/10 02:06:55;;;;;;;0.40;0.20;;;;;;;13.08;97.05;100729.38;4993623;28;20453;-54
2023/10/10 02:11:54;;;;;;;0.40;0.20;;;;;;;13.01;96.03;100728.66;4983781;28;20889;-53
2023/10/10 02:14:25;;;;;;;0.40;0.20;;;;;;;12.99;96.73;100720.72;4991190;28;21027;-53
2023/10/10 02:16:55;;;;;;;0.40;0.20;;;;;;;12.87;96.46;100725.56;4996410;28;20484;-53
2023/10/10 02:19:32;;;;;;;0.40;0.20;;;;;;;12.94;96.99;100719.13;4990677;28;20557;-53
2023/10/10 02:22:22;;;;;;;0.40;0.20;;;;;;;12.92;96.36;100723.63;4996975;28;20445;-53
2023/10/10 02:25:08;;;;;;;0.40;0.20;;;;;;;12.83;97.07;100729.25;4997272;28;20488;-53
2023/10/10 02:27:47;;;;;;;0.40;0.20;;;;;;;12.82;97.70;100733.72;4996615;28;20936;-53
2023/10/10 02:30:21;;;;;;;0.40;0.20;;;;;;;12.74;97.87;100723.25;4996561;28;21026;-53
2023/10/10 02:32:48;;;;;;;0.40;0.20;;;;;;;12.73;96.75;100723.31;4996407;28;20544;-53
2023/10/10 02:35:26;;;;;;;0.40;0.20;;;;;;;12.69;96.45;100721.66;4996574;28;20450;-53
2023/10/10 02:37:54;;;;;;;0.40;0.20;;;;;;;12.57;96.73;100725.56;4996561;28;20468;-53
2023/10/10 02:40:30;;;;;;;0.40;0.20;;;;;;;12.55;97.16;100731.88;4996390;28;20446;-53
2023/10/10 02:43:18;;;;;;;0.40;0.20;;;;;;;12.50;97.91;100725.81;4972073;28;20889;-53
2023/10/10 02:45:45;;;;;;;0.40;0.20;;;;;;;12.51;97.73;100738.22;4996320;28;20534;-52
2023/10/10 02:48:20;;;;;;;0.40;0.20;;;;;;;12.45;97.79;100736.59;4996267;28;20986;-52
2023/10/10 02:50:46;;;;;;;2.67;2.47;;;;;;;12.50;98.01;100732.03;4996306;28;20508;-52
2023/10/10 02:53:15;;;;;;;0.40;0.20;;;;;;;12.39;98.14;100735.00;4996382;28;20457;-52
2023/10/10 02:55:50;;;;;;;0.40;0.20;;;;;;;12.39;98.86;100724.31;4996077;28;20449;-53
2023/10/10 02:58:20;;;;;;;0.40;0.20;;;;;;;12.42;98.65;100728.69;4996910;28;20488;-48
2023/10/10 03:00:51;;;;;;;0.40;0.20;;;;;;;12.48;98.11;100728.53;4964192;28;20501;-49
2023/10/10 03:03:18;;;;;;;0.40;0.20;;;;;;;12.48;98.02;100728.53;4990198;28;20457;-49
2023/10/10 03:05:51;;;;;;;0.40;0.20;;;;;;;12.44;97.50;100725.06;4988376;28;20505;-49
2023/10/10 03:08:34;;;;;;;0.40;0.20;;;;;;;12.44;97.39;100729.50;4990887;28;20470;-49
2023/10/10 03:11:02;;;;;;;0.40;0.20;;;;;;;12.36;97.72;100728.88;4984498;28;20526;-49
2023/10/10 03:13:37;;;;;;;0.40;0.20;;;;;;;12.44;97.45;100732.19;4994262;28;20460;-48
2023/10/10 03:21:36;;;;;;;0.40;0.20;;;;;;;12.30;97.47;100740.56;4995634;28;20891;-49
2023/10/10 03:29:11;;;;;;;0.40;0.20;;;;;;;12.16;99.35;100738.31;4989735;28;20503;-49
2023/10/10 03:31:46;;;;;;;0.40;0.20;;;;;;;12.09;98.49;100734.06;4995442;28;20449;-50
2023/10/10 03:34:30;;;;;;;0.40;0.20;;;;;;;12.18;98.49;100745.38;4995253;28;20973;-49
2023/10/10 03:37:20;;;;;;;0.40;0.20;;;;;;;12.24;98.20;100743.44;4995276;28;20472;-49
2023/10/10 03:39:54;;;;;;;0.40;0.20;;;;;;;12.28;97.60;100739.75;4973497;28;20493;-49
2023/10/10 05:24:26;;;;;;;0.40;0.20;;;;;;;11.73;99.95;100719.03;4992982;28;20446;-51
2023/10/10 05:26:56;;;;;;;0.30;0.20;;;;;;;11.75;100.00;100711.88;4993252;28;20484;-50
2023/10/10 05:29:24;;;;;;;0.40;0.20;;;;;;;11.84;100.00;100715.22;4979939;28;20492;-50
2023/10/10 05:31:56;;;;;;;0.37;0.20;;;;;;;11.80;100.00;100716.22;4993039;28;20928;-50
2023/10/10 05:34:23;;;;;;;0.40;0.20;;;;;;;11.68;100.00;100715.63;4993200;28;20450;-50
2023/10/10 05:36:50;;;;;;;0.40;0.20;;;;;;;11.68;100.00;100712.97;4993079;28;20449;-49
2023/10/10 05:39:21;;;;;;;0.40;0.20;;;;;;;11.51;99.75;100724.03;4992700;28;20903;-50
2023/10/10 05:41:48;;;;;;;0.40;0.20;;;;;;;11.42;100.00;100722.50;4992601;28;20445;-49
2023/10/10 05:44:16;;;;;;;0.40;0.20;;;;;;;11.50;100.00;100725.81;4987483;28;20516;-50
2023/10/10 05:46:43;;;;;;;0.40;0.20;;;;;;;11.58;99.95;100721.19;4985215;28;20476;-51
2023/10/10 05:49:10;;;;;;;0.37;0.20;;;;;;;11.61;99.48;100733.53;4992698;28;20505;-50
2023/10/10 05:51:36;;;;;;;0.40;0.20;;;;;;;11.74;100.00;100736.75;4980852;28;20482;-51
2023/10/10 05:54:03;;;;;;;0.40;0.20;;;;;;;11.75;100.00;100741.19;4991793;28;20459;-50
2023/10/10 05:56:30;;;;;;;0.40;0.20;;;;;;;11.76;99.66;100732.25;4992873;28;20568;-50
2023/10/10 05:58:57;;;;;;;0.40;0.20;;;;;;;11.91;99.83;100729.22;4987177;28;20478;-50
2023/10/10 06:01:23;;;;;;;0.40;0.20;;;;;;;11.99;100.00;100729.91;4973245;28;20474;-50
2023/10/10 06:03:51;;;;;;;0.30;0.20;;;;;;;12.06;99.42;100730.59;4979650;28;20457;-51
2023/10/10 06:06:18;;;;;;;0.30;0.20;;;;;;;12.10;99.43;100725.16;4979637;28;20482;-50
2023/10/10 06:08:45;;;;;;;0.30;0.20;;;;;;;12.04;100.00;100727.09;4992582;28;20481;-50
2023/10/10 06:11:15;;;;;;;0.40;0.20;;;;;;;12.05;100.00;100729.72;4979534;28;20497;-51
2023/10/10 06:13:43;;;;;;;0.33;0.20;;;;;;;12.04;100.00;100733.31;4960744;28;20497;-50
2023/10/10 06:16:13;;;;;;;0.40;0.20;;;;;;;12.07;100.00;100737.69;4987339;28;20516;-50
2023/10/10 06:18:44;;;;;;;0.30;0.20;;;;;;;12.09;100.00;100738.53;4985515;28;20477;-50
2023/10/10 06:21:14;;;;;;;0.30;0.30;;;;;;;12.23;100.00;100743.47;4979335;28;20820;-50
2023/10/10 06:23:43;;;;;;;0.40;0.20;;;;;;;12.32;100.00;100740.53;4992403;28;20832;-52
2023/10/10 06:26:12;;;;;;;0.33;0.20;;;;;;;12.43;100.00;100738.44;4992293;28;20460;-50
2023/10/10 06:28:49;;;;;;;0.40;0.20;;;;;;;12.38;100.00;100740.38;4992572;28;20485;-50
2023/10/10 06:31:19;;;;;;;0.40;0.40;;;;;;;12.43;100.00;100741.97;4992480;28;20500;-50
2023/10/10 06:33:50;;;;;;;0.40;0.20;;;;;;;12.40;100.00;100739.41;4992539;28;20445;-50
2023/10/10 06:41:40;;;;;;;0.30;0.20;;;;;;;12.67;99.53;100751.06;4992505;28;20441;-50
2023/10/10 06:44:13;;;;;;;0.40;0.20;;;;;;;12.70;100.00;100750.97;4988217;28;20450;-50
2023/10/10 06:46:47;;;;;;;0.37;0.20;;;;;;;12.78;99.52;100748.06;4984787;28;20919;-50
2023/10/10 06:49:15;;;;;;;0.40;0.20;;;;;;;12.89;99.25;100759.31;4992174;28;20524;-50
2023/10/10 06:51:41;;;;;;;0.40;0.20;;;;;;;12.92;99.22;100753.00;4992283;28;20496;-50
2023/10/10 06:54:09;;;;;;;0.40;0.20;;;;;;;12.96;99.01;100766.19;4993000;28;20575;-50
2023/10/10 06:56:45;;;;;;;0.30;0.20;;;;;;;13.03;98.79;100758.88;4995811;28;20927;-50
2023/10/10 06:59:20;;;;;;;0.40;0.20;;;;;;;13.17;99.17;100770.00;4965339;28;20476;-50
2023/10/10 07:01:48;;;;;;;0.40;0.20;;;;;;;13.20;99.11;100766.38;4978514;28;20788;-50
2023/10/10 07:04:15;;;;;;;0.40;0.20;;;;;;;13.24;99.05;100762.69;4995910;28;20461;-50
2023/10/10 07:06:44;;;;;;;0.40;0.20;;;;;;;13.42;98.35;100770.09;4982564;28;20537;-50
2023/10/10 07:09:14;;;;;;;0.40;0.20;;;;;;;13.47;98.00;100753.94;4995632;28;20561;-51
2023/10/10 07:11:41;;;;;;;0.40;0.30;;;;;;;13.49;97.73;100754.75;4982455;28;20489;-51
2023/10/10 07:14:10;;;;;;;0.40;0.40;;;;;;;13.66;97.65;100762.19;4991218;28;20477;-50
2023/10/10 07:16:42;;;;;;;0.40;0.20;;;;;;;13.70;98.18;100762.03;4993123;28;20947;-50
2023/10/10 07:19:19;;;;;;;0.40;0.30;;;;;;;13.79;98.06;100753.72;4987968;28;20485;-50
2023/10/10 07:21:47;;;;;;;0.40;0.20;;;;;;;13.82;98.13;100758.06;4969691;28;20507;-50
2023/10/10 07:24:15;;;;;;;0.40;0.20;;;;;;;13.94;97.91;100757.66;4995359;28;20504;-50
2023/10/10 07:26:43;;;;;;;0.37;0.20;;;;;;;13.99;97.77;100753.03;4995307;28;20832;-50
2023/10/10 07:29:27;;;;;;;0.40;0.20;;;;;;;14.04;97.83;100755.53;4995349;28;20470;-51
2023/10/10 07:32:04;;;;;;;0.40;0.20;;;;;;;14.09;97.68;100754.44;4995435;28;20492;-50
2023/10/10 07:34:35;;;;;;;0.43;0.37;;;;;;;14.15;97.18;100751.56;4995338;28;20449;-51
2023/10/10 07:37:08;;;;;;;0.40;0.20;;;;;;;14.26;96.74;100759.19;4995278;28;20452;-50
2023/10/10 07:42:27;;;;;;;0.40;0.20;;;;;;;14.45;96.57;100740.69;4995148;28;20445;-50
2023/10/10 07:44:57;;;;;;;0.40;0.20;;;;;;;14.48;96.51;100751.28;4994945;28;20449;-50
2023/10/10 07:47:26;;;;;;;0.40;0.20;;;;;;;14.58;95.93;100751.81;4994684;28;20453;-51
2023/10/10 07:49:59;;;;;;;0.40;0.20;;;;;;;14.73;95.68;100751.22;4994862;28;20466;-50
2023/10/10 07:52:26;;;;;;;0.40;0.20;;;;;;;14.87;95.30;100753.38;4994760;28;20445;-50
2023/10/10 07:54:53;;;;;;;0.40;0.20;;;;;;;14.93;95.07;100755.81;4994873;28;20885;-50
2023/10/10 07:57:26;;;;;;;0.40;0.20;;;;;;;15.02;94.77;100752.78;4994739;28;20461;-51
2023/10/10 07:59:56;;;;;;;0.40;0.20;;;;;;;15.09;95.00;100755.16;4982145;28;20474;-51
2023/10/10 08:02:34;;;;;;;0.40;0.20;;;;;;;15.39;94.82;100750.38;4982409;28;20462;-51
2023/10/10 08:05:01;;;;;;;0.40;0.20;;;;;;;15.57;93.96;100754.09;4981756;28;20450;-51
2023/10/10 08:07:28;;;;;;;0.40;0.20;;;;;;;15.87;92.67;100738.53;4994719;28;20449;-51
2023/10/10 08:10:14;;;;;;;0.40;0.20;;;;;;;15.78;92.43;100744.31;4991937;28;20556;-51
2023/10/10 08:12:41;;;;;;;0.40;0.20;;;;;;;15.86;92.72;100744.84;4986973;28;20453;-50
2023/10/10 08:15:20;;;;;;;0.40;0.20;;;;;;;15.78;92.33;100740.75;4987953;28;20453;-50
2023/10/10 08:17:52;;;;;;;2.77;2.67;;;;;;;15.87;92.15;100733.19;4987172;28;20548;-51
2023/10/10 08:23:08;;;;;;;0.40;0.20;;;;;;;15.86;91.76;100744.84;4994457;28;20449;-51
2023/10/10 08:25:37;;;;;;;0.40;0.20;;;;;;;16.02;91.08;100738.81;4994367;28;20821;-51
2023/10/10 08:28:04;;;;;;;0.40;0.20;;;;;;;16.05;91.34;100739.56;4994237;28;20457;-51
2023/10/10 08:30:32;;;;;;;0.40;0.20;;;;;;;16.32;90.69;100744.66;4994113;28;20863;-51
2023/10/10 08:33:00;;;;;;;0.40;0.20;;;;;;;16.37;89.62;100748.84;4993987;28;21017;-50
2023/10/10 08:35:29;;;;;;;0.40;0.20;;;;;;;16.46;90.00;100747.59;4994099;28;20458;-51
2023/10/10 08:37:56;;;;;;;0.40;0.20;;;;;;;17.04;88.72;100751.13;4993895;28;20950;-51
2023/10/10 08:40:26;;;;;;;0.40;0.20;;;;;;;17.03;87.26;100746.69;4994079;28;20496;-52
2023/10/10 08:42:53;;;;;;;0.40;0.20;;;;;;;16.96;87.83;100747.91;4994039;28;20428;-53
2023/10/10 08:45:22;;;;;;;0.40;0.20;;;;;;;16.90;87.94;100758.09;4993118;28;20544;-51
2023/10/10 08:48:00;;;;;;;0.40;0.20;;;;;;;17.33;87.02;100756.91;4968734;28;20461;-49
2023/10/10 08:50:28;;;;;;;0.40;0.20;;;;;;;17.55;86.13;100754.03;4993713;28;21046;-49
2023/10/10 08:52:54;;;;;;;0.40;0.20;;;;;;;17.25;87.66;100756.41;4994015;28;20455;-49
2023/10/10 08:55:28;;;;;;;0.40;0.20;;;;;;;17.67;85.39;100751.56;4993649;28;20970;-49
2023/10/10 08:57:55;;;;;;;0.40;0.20;;;;;;;17.78;85.24;100751.06;4993745;28;20457;-50
2023/10/10 09:00:26;;;;;;;0.40;0.20;;;;;;;17.66;85.45;100747.16;4977735;28;20447;-53
2023/10/10 09:02:56;;;;;;;0.40;0.20;;;;;;;17.51;85.49;100747.06;4984626;28;20456;-53
2023/10/10 09:05:28;;;;;;;0.40;0.20;;;;;;;17.72;85.99;100746.03;4993740;28;20446;-53
2023/10/10 09:08:05;;;;;;;0.40;0.20;;;;;;;17.56;85.16;100745.03;4993448;28;20544;-53
2023/10/10 09:10:41;;;;;;;0.40;0.20;;;;;;;17.90;84.26;100750.44;4986322;28;20492;-53
2023/10/10 09:13:09;;;;;;;0.40;0.20;;;;;;;18.05;82.71;100748.78;4989443;28;20455;-53
2023/10/10 09:15:36;;;;;;;0.40;0.20;;;;;;;17.91;83.02;100738.72;4986862;28;20835;-53
2023/10/10 09:18:17;;;;;;;0.40;0.20;;;;;;;17.96;84.00;100743.91;4985989;28;20925;-55
2023/10/10 09:20:47;;;;;;;0.47;0.30;;;;;;;18.33;82.39;100745.50;4993380;28;20919;-53
2023/10/10 09:23:25;;;;;;;0.40;0.20;;;;;;;18.52;82.36;100737.31;4992950;28;20450;-53
2023/10/10 09:26:12;;;;;;;0.40;0.20;;;;;;;18.34;82.18;100737.34;4993193;28;20453;-54
2023/10/10 09:28:55;;;;;;;0.40;0.20;;;;;;;18.02;82.72;100741.75;4993215;28;20492;-54
2023/10/10 09:31:31;;;;;;;0.40;0.20;;;;;;;18.19;82.85;100737.28;4992918;28;20572;-54
2023/10/10 09:34:05;;;;;;;0.40;0.20;;;;;;;18.49;82.29;100741.03;4993176;28;20423;-54
2023/10/10 09:36:39;;;;;;;0.40;0.20;;;;;;;18.47;82.13;100739.38;4993126;28;20541;-55
2023/10/10 09:39:09;;;;;;;0.40;0.20;;;;;;;18.72;82.08;100731.75;4992966;28;20448;-55
2023/10/10 09:41:37;;;;;;;0.40;0.20;;;;;;;18.74;81.14;100737.03;4992954;28;20424;-54
2023/10/10 09:50:00;;;;;;;0.40;0.20;;;;;;;18.84;80.66;100719.41;4970873;28;20483;-55
2023/10/10 09:58:00;;;;;;;0.40;0.20;;;;;;;19.34;79.76;100726.47;4992594;28;20449;-54
2023/10/10 10:00:45;;;;;;;0.40;0.20;;;;;;;19.43;79.71;100724.06;4975836;28;20447;-55
2023/10/10 10:09:37;;;;;;;0.40;0.20;;;;;;;19.63;77.94;100719.38;4967229;28;20528;-55
2023/10/10 10:12:30;;;;;;;0.40;0.20;;;;;;;20.04;77.24;100712.38;4967732;28;20552;-54
2023/10/10 10:15:21;;;;;;;0.40;0.20;;;;;;;20.28;76.45;100712.66;4985668;28;20925;-54
2023/10/10 10:18:12;;;;;;;1.17;1.07;;;;;;;20.40;75.50;100711.91;4985238;28;20517;-54
2023/10/10 10:23:45;;;;;;;0.40;0.20;;;;;;;20.66;74.78;100715.69;4938565;28;20614;-55
2023/10/10 10:26:29;;;;;;;0.87;0.87;;;;;;;20.63;74.67;100715.03;4992644;28;20473;-54
2023/10/10 10:29:00;;;;;;;0.40;0.20;;;;;;;20.77;75.41;100712.31;4993316;28;20451;-54
2023/10/10 10:31:29;;;;;;;0.40;0.20;;;;;;;20.90;74.15;100710.56;4996186;28;20489;-54
2023/10/10 10:34:07;;;;;;;0.40;0.20;;;;;;;21.11;73.65;100719.13;4996426;28;20453;-54
2023/10/10 10:36:44;;;;;;;0.40;0.20;;;;;;;21.19;73.97;100722.19;4973969;28;20819;-55
2023/10/10 10:39:20;;;;;;;0.43;0.30;;;;;;;20.97;73.45;100709.22;4996141;28;20531;-55
2023/10/10 10:41:56;;;;;;;0.40;0.20;;;;;;;21.09;74.53;100715.63;4996514;28;20440;-54
2023/10/10 10:44:44;;;;;;;0.40;0.20;;;;;;;21.26;72.31;100710.03;4995769;28;20555;-54
2023/10/10 10:47:39;;;;;;;0.40;0.20;;;;;;;21.23;72.92;100717.44;4996374;28;20826;-53
2023/10/10 10:50:18;;;;;;;0.40;0.20;;;;;;;21.33;72.42;100710.47;4996115;28;20444;-54
2023/10/10 10:52:56;;;;;;;0.40;0.20;;;;;;;21.22;72.20;100704.88;4995894;28;20471;-54
2023/10/10 10:55:28;;;;;;;0.40;0.20;;;;;;;21.42;71.69;100699.06;4996125;28;20519;-54
2023/10/10 11:01:07;;;;;;;1.07;1.07;;;;;;;21.65;72.03;100692.06;4953466;28;20454;-54
2023/10/10 11:03:35;;;;;;;0.40;0.20;;;;;;;21.54;70.93;100700.06;4993336;28;20453;-55
2023/10/10 11:06:07;;;;;;;0.43;0.20;;;;;;;21.57;70.44;100689.91;4995960;28;20454;-55
2023/10/10 11:11:40;;;;;;;0.40;0.20;;;;;;;21.94;71.00;100687.38;4982297;28;20468;-55
2023/10/10 11:14:18;;;;;;;0.40;0.20;;;;;;;21.93;70.10;100673.94;4991839;28;20425;-53
2023/10/10 11:16:46;;;;;;;0.40;0.20;;;;;;;21.79;70.62;100675.78;4994541;28;20441;-53
2023/10/10 11:22:02;;;;;;;0.40;0.20;;;;;;;21.94;69.98;100670.28;4970271;28;20503;-55
2023/10/10 11:24:31;;;;;;;0.40;0.20;;;;;;;22.00;69.20;100675.25;4995524;28;20528;-55
2023/10/10 11:29:50;;;;;;;0.40;0.20;;;;;;;22.37;68.40;100666.28;4995122;28;20530;-54
2023/10/10 11:32:24;;;;;;;0.50;0.20;;;;;;;22.55;67.57;100665.94;4995301;28;20496;-55
2023/10/10 11:35:17;;;;;;;0.50;0.20;;;;;;;22.66;67.13;100661.47;4995460;28;20423;-55
2023/10/10 11:37:47;;;;;;;0.40;0.20;;;;;;;22.41;67.90;100658.81;4995299;28;20420;-54
2023/10/10 11:40:19;;;;;;;0.97;0.97;;;;;;;22.68;67.57;100656.81;4994872;28;20472;-54
2023/10/10 11:42:47;;;;;;;0.40;0.20;;;;;;;22.82;66.80;100647.66;4994906;28;20931;-55
2023/10/10 11:45:26;;;;;;;0.47;0.23;;;;;;;22.87;67.37;100644.63;4994885;28;20503;-54
2023/10/10 11:48:00;;;;;;;0.40;0.20;;;;;;;22.92;65.63;100639.75;4995081;28;20456;-54
2023/10/10 11:50:49;;;;;;;0.40;0.30;;;;;;;23.09;65.62;100643.91;4994836;28;20430;-54
2023/10/10 11:53:24;;;;;;;0.40;0.20;;;;;;;22.91;67.27;100635.31;4994879;28;20519;-54
2023/10/10 11:55:52;;;;;;;0.50;0.20;;;;;;;23.01;66.48;100634.50;4995149;28;20424;-55
2023/10/10 11:58:19;;;;;;;0.40;0.20;;;;;;;23.04;67.34;100642.41;4994626;28;20522;-54
2023/10/10 12:00:59;;;;;;;0.40;0.20;;;;;;;22.98;66.07;100632.00;4975361;28;20425;-54
2023/10/10 12:03:41;;;;;;;0.40;0.20;;;;;;;22.85;65.17;100623.06;4990193;28;20894;-54
2023/10/10 12:06:14;;;;;;;0.40;0.20;;;;;;;22.73;65.10;100622.09;4994805;28;20508;-55
2023/10/10 12:08:45;;;;;;;0.43;0.20;;;;;;;22.85;65.79;100620.34;4994519;28;20440;-54
2023/10/10 12:11:12;;;;;;;0.50;0.30;;;;;;;22.96;65.06;100616.84;4981735;28;20515;-55
2023/10/10 12:13:39;;;;;;;0.40;0.20;;;;;;;23.19;64.54;100606.97;4981381;28;20487;-55
2023/10/10 12:16:12;;;;;;;0.50;0.20;;;;;;;23.31;64.49;100608.75;4988222;28;20453;-54
2023/10/10 12:18:49;;;;;;;0.50;0.20;;;;;;;23.60;62.79;100606.53;4987227;28;20481;-55
2023/10/10 12:21:20;;;;;;;0.50;0.40;;;;;;;23.54;63.19;100599.69;4994459;28;20612;-55
2023/10/10 12:23:48;;;;;;;0.50;0.20;;;;;;;23.65;62.92;100588.03;4994446;28;20478;-54
2023/10/10 12:26:15;;;;;;;0.50;0.30;;;;;;;23.55;63.41;100600.56;4994130;28;20508;-54
2023/10/10 12:28:43;;;;;;;0.50;0.23;;;;;;;23.69;62.20;100589.50;4993991;28;20479;-55
2023/10/10 12:31:15;;;;;;;0.50;0.20;;;;;;;23.68;61.65;100593.22;4994354;28;20489;-54
2023/10/10 12:33:48;;;;;;;0.50;0.30;;;;;;;23.80;61.63;100578.69;4994342;28;20503;-55
2023/10/10 12:36:15;;;;;;;0.40;0.30;;;;;;;23.83;61.42;100586.56;4993934;28;20504;-55
2023/10/10 12:38:42;;;;;;;0.40;0.20;;;;;;;24.03;60.79;100582.28;4976742;28;20454;-55
2023/10/10 12:41:20;;;;;;;0.50;0.20;;;;;;;23.93;61.02;100587.59;4993836;28;20424;-54
2023/10/10 12:43:47;;;;;;;0.50;0.20;;;;;;;24.14;61.18;100574.16;4993440;28;20449;-55
2023/10/10 12:46:17;;;;;;;0.40;0.20;;;;;;;24.44;59.48;100581.69;4993849;28;20523;-55
2023/10/10 12:48:43;;;;;;;0.50;0.30;;;;;;;24.47;58.54;100580.56;4993735;28;20475;-54
2023/10/10 12:51:10;;;;;;;0.50;0.30;;;;;;;24.22;58.17;100577.09;4993299;28;20477;-55
2023/10/10 12:53:42;;;;;;;0.40;0.20;;;;;;;24.43;56.96;100571.81;4993133;28;20896;-54
2023/10/10 12:56:16;;;;;;;0.50;0.20;;;;;;;24.46;56.52;100573.41;4993838;28;20420;-55
2023/10/10 12:58:51;;;;;;;0.43;0.20;;;;;;;24.44;57.77;100568.09;4990166;28;20881;-55
2023/10/10 13:01:25;;;;;;;0.50;0.20;;;;;;;24.47;56.49;100559.69;4974392;28;20552;-55
2023/10/10 13:03:52;;;;;;;0.47;0.20;;;;;;;24.53;56.86;100558.31;4992693;28;20951;-55
2023/10/10 13:06:22;;;;;;;0.50;0.20;;;;;;;24.69;56.87;100556.06;4993363;28;20472;-55
2023/10/10 13:08:54;;;;;;;0.40;0.20;;;;;;;24.65;55.83;100545.56;4993450;28;20469;-51
2023/10/10 13:11:43;;;;;;;0.50;0.30;;;;;;;24.90;55.25;100550.66;4980348;28;20521;-51
2023/10/10 13:14:24;;;;;;;0.50;0.20;;;;;;;24.57;56.50;100543.50;4989025;28;20424;-51
2023/10/10 13:19:21;;;;;;;0.40;0.20;;;;;;;24.94;53.88;100545.84;4986866;28;20577;-51
2023/10/10 13:21:48;;;;;;;0.50;0.30;;;;;;;25.01;53.53;100539.78;4968208;28;20476;-51
2023/10/10 13:24:15;;;;;;;0.40;0.20;;;;;;;24.91;54.48;100541.50;4993117;28;21019;-51
2023/10/10 13:26:49;;;;;;;0.50;0.20;;;;;;;25.09;52.64;100550.03;4993262;28;20462;-51
2023/10/10 13:29:16;;;;;;;0.50;0.20;;;;;;;25.02;52.22;100546.94;4993211;28;20446;-51
2023/10/10 13:31:44;;;;;;;0.40;0.20;;;;;;;25.12;52.55;100544.31;4993247;28;20489;-51
2023/10/10 13:34:11;;;;;;;0.40;0.20;;;;;;;25.05;53.97;100534.94;4993055;28;20502;-51
2023/10/10 13:36:38;;;;;;;0.50;0.20;;;;;;;25.02;53.43;100540.66;4993269;28;20990;-51
2023/10/10 13:39:09;;;;;;;0.50;0.30;;;;;;;24.99;52.36;100549.91;4992953;28;20470;-50
2023/10/10 13:41:38;;;;;;;0.50;0.20;;;;;;;25.04;53.02;100544.09;4992885;28;20469;-51
2023/10/10 13:44:05;;;;;;;0.47;0.27;;;;;;;25.12;52.19;100538.03;4975197;28;20906;-51
2023/10/10 13:46:33;;;;;;;0.40;0.20;;;;;;;24.91;52.41;100530.63;4993167;28;20470;-51
2023/10/10 13:49:00;;;;;;;0.40;0.20;;;;;;;24.95;52.68;100537.56;4992880;28;20523;-51
2023/10/10 13:51:39;;;;;;;0.50;0.20;;;;;;;25.06;52.35;100537.53;4992922;28;20514;-51
2023/10/10 13:54:07;;;;;;;0.50;0.30;;;;;;;25.27;52.19;100532.13;4992693;28;20432;-51
2023/10/10 13:56:34;;;;;;;0.50;0.20;;;;;;;25.40;52.07;100524.63;4993040;28;20456;-51
2023/10/10 13:59:00;;;;;;;0.43;0.23;;;;;;;25.39;52.13;100522.91;4987210;28;20989;-51
2023/10/10 14:01:31;;;;;;;0.50;0.20;;;;;;;25.52;52.28;100528.13;4973618;28;20545;-51
2023/10/10 14:04:04;;;;;;;0.50;0.30;;;;;;;25.50;51.62;100519.25;4969698;28;20453;-50
2023/10/10 14:06:34;;;;;;;0.50;0.20;;;;;;;25.39;51.73;100520.19;4996659;28;20427;-51
2023/10/10 14:09:03;;;;;;;0.50;0.20;;;;;;;25.55;50.58;100525.16;4996938;28;20444;-51
2023/10/10 14:11:32;;;;;;;0.50;0.20;;;;;;;25.59;50.85;100514.84;4983671;28;20461;-51
2023/10/10 14:13:59;;;;;;;0.50;0.30;;;;;;;25.63;50.65;100516.28;4993941;28;20545;-51
2023/10/10 14:16:25;;;;;;;0.50;0.30;;;;;;;25.46;51.06;100522.34;4993327;28;20495;-51
2023/10/10 14:18:52;;;;;;;0.50;0.20;;;;;;;25.53;50.87;100518.13;4989276;28;20481;-51
2023/10/10 14:21:25;;;;;;;0.50;0.20;;;;;;;25.44;51.63;100521.63;4996754;28;20424;-51
2023/10/10 14:24:04;;;;;;;0.50;0.20;;;;;;;25.20;52.51;100513.72;4996770;28;20817;-51
2023/10/10 14:26:34;;;;;;;0.50;0.30;;;;;;;25.29;51.42;100512.94;4996755;28;20420;-51
2023/10/10 14:29:07;;;;;;;0.50;0.30;;;;;;;25.07;51.91;100506.59;4996505;28;20512;-51
2023/10/10 14:31:35;;;;;;;0.50;0.23;;;;;;;25.00;52.56;100519.03;4996328;28;20449;-51